aviador You're here:

LDOS Decoded Metar

OSIJEK in CROATIA
Report Time2018-07-20 20:00:00
UTC Time2018-07-20 20:09:33
Flight Rules vfr VFR
Wind340° at 07 kt
W.Decomp.*RWY 29: 4.8 kt HW 5.1 kt RCW
W.Rank340° ranks 2
Current wind is below 340° avg. (8.7)
Visibility9999 m
Phenomena:N/A
Clouds:N/A
Expected CloudBase > 2,400 ft AGL from Temp-Dew spread
CeilingNone
Temp21°C (ISA +7)
Dew Point15°C (69% RH)
AAT20.1°C
QNH1012 hPa
Density Alt1,322 ft
Elevation292 ft
Report Wrong Elevation
Raw Report
METAR LDOS 202000Z 34007KT CAVOK 21/15 Q1012=

Extra information for LDOS:More info

Metar Taf Metar & Taf Last 4 Metars F.Rules Stats Wind Profile Meteogram Temp Stats Airport Information Weather charts Add Link Nearby VenuesMetar ALERT Operation Metar Decoded Social comments